sensor_id;sensor_type;location;lat;lon;timestamp;temperature;humidity
64634;DHT22;51043;52.406;9.690;2022-08-21T00:02:27;14.80;99.90
64634;DHT22;51043;52.406;9.690;2022-08-21T00:04:54;14.80;99.90
64634;DHT22;51043;52.406;9.690;2022-08-21T00:07:24;14.70;99.90
64634;DHT22;51043;52.406;9.690;2022-08-21T00:09:53;14.70;99.90
64634;DHT22;51043;52.406;9.690;2022-08-21T00:12:20;14.70;99.90
64634;DHT22;51043;52.406;9.690;2022-08-21T00:14:47;14.70;99.90
64634;DHT22;51043;52.406;9.690;2022-08-21T00:17:14;14.60;99.90
64634;DHT22;51043;52.406;9.690;2022-08-21T00:19:41;14.60;99.90
64634;DHT22;51043;52.406;9.690;2022-08-21T00:22:08;14.60;99.90
64634;DHT22;51043;52.406;9.690;2022-08-21T00:24:35;14.50;99.90
64634;DHT22;51043;52.406;9.690;2022-08-21T00:27:02;14.50;99.90
64634;DHT22;51043;52.406;9.690;2022-08-21T00:29:30;14.40;99.90
64634;DHT22;51043;52.406;9.690;2022-08-21T00:31:57;14.40;99.90
64634;DHT22;51043;52.406;9.690;2022-08-21T00:34:24;14.40;99.90
64634;DHT22;51043;52.406;9.690;2022-08-21T00:36:57;14.40;99.90
64634;DHT22;51043;52.406;9.690;2022-08-21T00:39:24;14.40;99.90
64634;DHT22;51043;52.406;9.690;2022-08-21T00:41:55;14.40;99.90
64634;DHT22;51043;52.406;9.690;2022-08-21T00:44:22;14.30;99.90
64634;DHT22;51043;52.406;9.690;2022-08-21T00:46:49;14.30;99.90
64634;DHT22;51043;52.406;9.690;2022-08-21T00:49:16;14.30;99.90
64634;DHT22;51043;52.406;9.690;2022-08-21T00:54:12;14.20;99.90
64634;DHT22;51043;52.406;9.690;2022-08-21T00:56:40;14.20;99.90
64634;DHT22;51043;52.406;9.690;2022-08-21T00:59:07;14.20;99.90
64634;DHT22;51043;52.406;9.690;2022-08-21T01:01:35;14.10;99.90
64634;DHT22;51043;52.406;9.690;2022-08-21T01:04:03;14.10;99.90
64634;DHT22;51043;52.406;9.690;2022-08-21T01:06:30;14.00;99.90
64634;DHT22;51043;52.406;9.690;2022-08-21T01:08:57;14.00;99.90
64634;DHT22;51043;52.406;9.690;2022-08-21T01:11:31;14.00;99.90
64634;DHT22;51043;52.406;9.690;2022-08-21T01:13:57;14.00;99.90
64634;DHT22;51043;52.406;9.690;2022-08-21T01:16:25;14.00;99.90
64634;DHT22;51043;52.406;9.690;2022-08-21T01:18:52;13.90;99.90
64634;DHT22;51043;52.406;9.690;2022-08-21T01:21:22;13.90;99.90
64634;DHT22;51043;52.406;9.690;2022-08-21T01:23:53;13.80;99.90
64634;DHT22;51043;52.406;9.690;2022-08-21T01:26:24;13.80;99.90
64634;DHT22;51043;52.406;9.690;2022-08-21T01:28:57;13.80;99.90
64634;DHT22;51043;52.406;9.690;2022-08-21T01:31:28;13.80;99.90
64634;DHT22;51043;52.406;9.690;2022-08-21T01:34:00;13.70;99.90
64634;DHT22;51043;52.406;9.690;2022-08-21T01:36:27;13.70;99.90
64634;DHT22;51043;52.406;9.690;2022-08-21T01:38:55;13.70;99.90
64634;DHT22;51043;52.406;9.690;2022-08-21T01:41:23;13.70;99.90
64634;DHT22;51043;52.406;9.690;2022-08-21T01:43:50;13.60;99.90
64634;DHT22;51043;52.406;9.690;2022-08-21T01:46:17;13.60;99.90
64634;DHT22;51043;52.406;9.690;2022-08-21T01:48:45;13.60;99.90
64634;DHT22;51043;52.406;9.690;2022-08-21T01:51:12;13.50;99.90
64634;DHT22;51043;52.406;9.690;2022-08-21T01:53:39;13.50;99.90
64634;DHT22;51043;52.406;9.690;2022-08-21T01:56:08;13.40;99.90
64634;DHT22;51043;52.406;9.690;2022-08-21T01:58:36;13.50;99.90
64634;DHT22;51043;52.406;9.690;2022-08-21T02:01:03;13.30;99.90
64634;DHT22;51043;52.406;9.690;2022-08-21T02:03:30;13.40;99.90
64634;DHT22;51043;52.406;9.690;2022-08-21T02:06:00;13.40;99.90
64634;DHT22;51043;52.406;9.690;2022-08-21T02:08:29;13.40;99.90
64634;DHT22;51043;52.406;9.690;2022-08-21T02:10:56;13.40;99.90
64634;DHT22;51043;52.406;9.690;2022-08-21T02:13:23;13.30;99.90
64634;DHT22;51043;52.406;9.690;2022-08-21T02:15:53;13.30;99.90
64634;DHT22;51043;52.406;9.690;2022-08-21T02:18:24;13.30;99.90
64634;DHT22;51043;52.406;9.690;2022-08-21T02:20:54;13.20;99.90
64634;DHT22;51043;52.406;9.690;2022-08-21T02:23:23;13.20;99.90
64634;DHT22;51043;52.406;9.690;2022-08-21T02:25:51;13.30;99.90
64634;DHT22;51043;52.406;9.690;2022-08-21T02:28:19;13.20;99.90
64634;DHT22;51043;52.406;9.690;2022-08-21T02:30:50;13.30;99.90
64634;DHT22;51043;52.406;9.690;2022-08-21T02:33:18;13.30;99.90
64634;DHT22;51043;52.406;9.690;2022-08-21T02:35:50;13.20;99.90
64634;DHT22;51043;52.406;9.690;2022-08-21T02:38:23;13.20;99.90
64634;DHT22;51043;52.406;9.690;2022-08-21T02:40:53;13.20;99.90
64634;DHT22;51043;52.406;9.690;2022-08-21T02:43:24;13.10;99.90
64634;DHT22;51043;52.406;9.690;2022-08-21T02:45:56;13.10;99.90
64634;DHT22;51043;52.406;9.690;2022-08-21T02:48:28;13.10;99.90
64634;DHT22;51043;52.406;9.690;2022-08-21T02:51:05;13.00;99.90
64634;DHT22;51043;52.406;9.690;2022-08-21T02:53:32;13.00;99.90
64634;DHT22;51043;52.406;9.690;2022-08-21T02:56:05;13.00;99.90
64634;DHT22;51043;52.406;9.690;2022-08-21T02:58:44;13.00;99.90
64634;DHT22;51043;52.406;9.690;2022-08-21T03:01:12;13.00;99.90
64634;DHT22;51043;52.406;9.690;2022-08-21T03:03:41;13.00;99.90
64634;DHT22;51043;52.406;9.690;2022-08-21T03:06:11;12.90;99.90
64634;DHT22;51043;52.406;9.690;2022-08-21T03:08:39;12.90;99.90
64634;DHT22;51043;52.406;9.690;2022-08-21T03:11:06;12.90;99.90
64634;DHT22;51043;52.406;9.690;2022-08-21T03:13:34;13.00;99.90
64634;DHT22;51043;52.406;9.690;2022-08-21T03:16:01;13.00;99.90
64634;DHT22;51043;52.406;9.690;2022-08-21T03:18:35;13.00;99.90
64634;DHT22;51043;52.406;9.690;2022-08-21T03:21:03;13.00;99.90
64634;DHT22;51043;52.406;9.690;2022-08-21T03:23:35;13.00;99.90
64634;DHT22;51043;52.406;9.690;2022-08-21T03:26:03;13.00;99.90
64634;DHT22;51043;52.406;9.690;2022-08-21T03:28:33;13.10;99.90
64634;DHT22;51043;52.406;9.690;2022-08-21T03:31:02;13.10;99.90
64634;DHT22;51043;52.406;9.690;2022-08-21T03:33:29;13.20;99.90
64634;DHT22;51043;52.406;9.690;2022-08-21T03:36:07;13.30;99.90
64634;DHT22;51043;52.406;9.690;2022-08-21T03:38:37;13.50;99.90
64634;DHT22;51043;52.406;9.690;2022-08-21T03:41:08;13.60;99.90
64634;DHT22;51043;52.406;9.690;2022-08-21T03:43:35;13.70;99.90
64634;DHT22;51043;52.406;9.690;2022-08-21T03:46:05;13.90;99.90
64634;DHT22;51043;52.406;9.690;2022-08-21T03:48:37;14.00;99.90
64634;DHT22;51043;52.406;9.690;2022-08-21T03:51:07;14.20;99.90
64634;DHT22;51043;52.406;9.690;2022-08-21T03:53:34;14.30;99.90
64634;DHT22;51043;52.406;9.690;2022-08-21T03:56:04;14.40;99.90
64634;DHT22;51043;52.406;9.690;2022-08-21T03:58:32;14.50;99.90
64634;DHT22;51043;52.406;9.690;2022-08-21T04:01:00;14.60;99.90
64634;DHT22;51043;52.406;9.690;2022-08-21T04:03:28;14.70;99.90
64634;DHT22;51043;52.406;9.690;2022-08-21T04:05:55;14.90;99.90
64634;DHT22;51043;52.406;9.690;2022-08-21T04:08:23;14.90;99.90
64634;DHT22;51043;52.406;9.690;2022-08-21T04:10:55;14.90;99.90
64634;DHT22;51043;52.406;9.690;2022-08-21T04:13:23;14.90;99.90
64634;DHT22;51043;52.406;9.690;2022-08-21T04:15:50;15.00;99.90
64634;DHT22;51043;52.406;9.690;2022-08-21T04:18:17;15.00;99.90
64634;DHT22;51043;52.406;9.690;2022-08-21T04:20:46;15.10;99.90
64634;DHT22;51043;52.406;9.690;2022-08-21T04:23:13;15.20;99.90
64634;DHT22;51043;52.406;9.690;2022-08-21T04:25:40;15.30;99.90
64634;DHT22;51043;52.406;9.690;2022-08-21T04:28:07;15.40;99.90
64634;DHT22;51043;52.406;9.690;2022-08-21T04:30:34;15.50;99.90
64634;DHT22;51043;52.406;9.690;2022-08-21T04:33:01;15.50;99.90
64634;DHT22;51043;52.406;9.690;2022-08-21T04:35:30;15.60;99.90
64634;DHT22;51043;52.406;9.690;2022-08-21T04:38:00;15.70;99.90
64634;DHT22;51043;52.406;9.690;2022-08-21T04:40:28;15.70;99.90
64634;DHT22;51043;52.406;9.690;2022-08-21T04:43:03;15.80;99.90
64634;DHT22;51043;52.406;9.690;2022-08-21T04:45:34;15.90;99.90
64634;DHT22;51043;52.406;9.690;2022-08-21T04:48:04;15.90;99.90
64634;DHT22;51043;52.406;9.690;2022-08-21T04:50:47;16.00;99.90
64634;DHT22;51043;52.406;9.690;2022-08-21T04:53:26;16.00;99.90
64634;DHT22;51043;52.406;9.690;2022-08-21T04:55:56;16.20;99.90
64634;DHT22;51043;52.406;9.690;2022-08-21T04:58:26;16.30;99.90
64634;DHT22;51043;52.406;9.690;2022-08-21T05:00:55;16.30;99.90
64634;DHT22;51043;52.406;9.690;2022-08-21T05:03:23;16.40;99.90
64634;DHT22;51043;52.406;9.690;2022-08-21T05:05:50;16.40;99.90
64634;DHT22;51043;52.406;9.690;2022-08-21T05:08:19;16.50;99.90
64634;DHT22;51043;52.406;9.690;2022-08-21T05:10:48;16.60;99.90
64634;DHT22;51043;52.406;9.690;2022-08-21T05:13:16;16.50;99.90
64634;DHT22;51043;52.406;9.690;2022-08-21T05:15:43;16.80;99.90
64634;DHT22;51043;52.406;9.690;2022-08-21T05:18:10;16.90;99.90
64634;DHT22;51043;52.406;9.690;2022-08-21T05:20:38;17.00;99.90
64634;DHT22;51043;52.406;9.690;2022-08-21T05:23:11;17.00;99.90
64634;DHT22;51043;52.406;9.690;2022-08-21T05:25:38;17.00;99.90
64634;DHT22;51043;52.406;9.690;2022-08-21T05:28:06;17.10;99.90
64634;DHT22;51043;52.406;9.690;2022-08-21T05:30:34;17.10;99.90
64634;DHT22;51043;52.406;9.690;2022-08-21T05:33:03;17.20;99.90
64634;DHT22;51043;52.406;9.690;2022-08-21T05:35:31;17.40;99.90
64634;DHT22;51043;52.406;9.690;2022-08-21T05:38:00;17.60;99.90
64634;DHT22;51043;52.406;9.690;2022-08-21T05:40:27;17.70;99.90
64634;DHT22;51043;52.406;9.690;2022-08-21T05:42:57;17.70;99.90
64634;DHT22;51043;52.406;9.690;2022-08-21T05:45:28;17.80;99.90
64634;DHT22;51043;52.406;9.690;2022-08-21T05:48:30;17.90;99.90
64634;DHT22;51043;52.406;9.690;2022-08-21T05:51:04;18.00;99.90
64634;DHT22;51043;52.406;9.690;2022-08-21T05:53:32;18.10;99.90
64634;DHT22;51043;52.406;9.690;2022-08-21T05:56:02;18.20;99.90
64634;DHT22;51043;52.406;9.690;2022-08-21T05:58:32;18.20;99.90
64634;DHT22;51043;52.406;9.690;2022-08-21T06:01:01;18.30;99.90
64634;DHT22;51043;52.406;9.690;2022-08-21T06:03:32;18.20;99.90
64634;DHT22;51043;52.406;9.690;2022-08-21T06:06:01;18.20;99.90
64634;DHT22;51043;52.406;9.690;2022-08-21T06:08:29;18.20;99.90
64634;DHT22;51043;52.406;9.690;2022-08-21T06:10:58;18.10;99.90
64634;DHT22;51043;52.406;9.690;2022-08-21T06:13:27;18.10;99.90
64634;DHT22;51043;52.406;9.690;2022-08-21T06:16:05;18.10;99.90
64634;DHT22;51043;52.406;9.690;2022-08-21T06:18:36;18.10;99.90
64634;DHT22;51043;52.406;9.690;2022-08-21T06:21:04;18.00;99.90
64634;DHT22;51043;52.406;9.690;2022-08-21T06:23:35;18.00;99.90
64634;DHT22;51043;52.406;9.690;2022-08-21T06:26:04;18.00;99.90
64634;DHT22;51043;52.406;9.690;2022-08-21T06:28:32;18.00;99.90
64634;DHT22;51043;52.406;9.690;2022-08-21T06:31:01;18.10;99.90
64634;DHT22;51043;52.406;9.690;2022-08-21T06:33:28;18.10;99.90
64634;DHT22;51043;52.406;9.690;2022-08-21T06:35:58;18.20;99.90
64634;DHT22;51043;52.406;9.690;2022-08-21T06:38:25;18.40;99.90
64634;DHT22;51043;52.406;9.690;2022-08-21T06:40:52;18.40;99.90
64634;DHT22;51043;52.406;9.690;2022-08-21T06:43:19;18.40;99.90
64634;DHT22;51043;52.406;9.690;2022-08-21T06:45:46;18.70;99.90
64634;DHT22;51043;52.406;9.690;2022-08-21T06:48:13;18.80;99.90
64634;DHT22;51043;52.406;9.690;2022-08-21T06:50:44;19.10;99.90
64634;DHT22;51043;52.406;9.690;2022-08-21T06:53:14;19.20;99.90
64634;DHT22;51043;52.406;9.690;2022-08-21T06:55:42;19.20;99.90
64634;DHT22;51043;52.406;9.690;2022-08-21T06:58:10;19.30;99.90
64634;DHT22;51043;52.406;9.690;2022-08-21T07:00:46;19.40;99.90
64634;DHT22;51043;52.406;9.690;2022-08-21T07:03:25;19.30;99.90
64634;DHT22;51043;52.406;9.690;2022-08-21T07:05:52;19.50;99.90
64634;DHT22;51043;52.406;9.690;2022-08-21T07:08:20;19.60;99.90
64634;DHT22;51043;52.406;9.690;2022-08-21T07:10:48;19.80;99.90
64634;DHT22;51043;52.406;9.690;2022-08-21T07:13:15;20.00;99.90
64634;DHT22;51043;52.406;9.690;2022-08-21T07:15:43;20.30;99.90
64634;DHT22;51043;52.406;9.690;2022-08-21T07:18:11;20.60;99.90
64634;DHT22;51043;52.406;9.690;2022-08-21T07:20:40;20.80;99.90
64634;DHT22;51043;52.406;9.690;2022-08-21T07:23:15;21.10;99.90
64634;DHT22;51043;52.406;9.690;2022-08-21T07:25:45;21.20;99.90
64634;DHT22;51043;52.406;9.690;2022-08-21T07:28:12;21.60;99.90
64634;DHT22;51043;52.406;9.690;2022-08-21T07:30:39;22.30;99.90
64634;DHT22;51043;52.406;9.690;2022-08-21T07:33:07;23.40;99.90
64634;DHT22;51043;52.406;9.690;2022-08-21T07:35:37;24.20;99.90
64634;DHT22;51043;52.406;9.690;2022-08-21T07:38:07;25.10;99.90
64634;DHT22;51043;52.406;9.690;2022-08-21T07:40:34;25.40;99.90
64634;DHT22;51043;52.406;9.690;2022-08-21T07:43:05;25.90;98.90
64634;DHT22;51043;52.406;9.690;2022-08-21T07:45:33;26.40;96.20
64634;DHT22;51043;52.406;9.690;2022-08-21T07:48:03;26.90;93.10
64634;DHT22;51043;52.406;9.690;2022-08-21T07:50:30;27.30;90.80
64634;DHT22;51043;52.406;9.690;2022-08-21T07:53:06;27.30;89.70
64634;DHT22;51043;52.406;9.690;2022-08-21T07:55:34;27.50;87.60
64634;DHT22;51043;52.406;9.690;2022-08-21T07:58:04;27.90;85.20
64634;DHT22;51043;52.406;9.690;2022-08-21T08:00:31;28.30;76.60
64634;DHT22;51043;52.406;9.690;2022-08-21T08:03:07;28.20;73.00
64634;DHT22;51043;52.406;9.690;2022-08-21T08:05:34;28.20;72.70
64634;DHT22;51043;52.406;9.690;2022-08-21T08:08:04;28.60;70.50
64634;DHT22;51043;52.406;9.690;2022-08-21T08:10:31;28.80;68.70
64634;DHT22;51043;52.406;9.690;2022-08-21T08:12:59;29.30;66.60
64634;DHT22;51043;52.406;9.690;2022-08-21T08:15:27;29.70;60.60
64634;DHT22;51043;52.406;9.690;2022-08-21T08:17:56;29.60;59.50
64634;DHT22;51043;52.406;9.690;2022-08-21T08:20:24;29.80;58.20
64634;DHT22;51043;52.406;9.690;2022-08-21T08:22:54;29.80;57.90
64634;DHT22;51043;52.406;9.690;2022-08-21T08:25:25;29.90;56.50
64634;DHT22;51043;52.406;9.690;2022-08-21T08:27:52;29.60;57.20
64634;DHT22;51043;52.406;9.690;2022-08-21T08:30:20;30.00;56.80
64634;DHT22;51043;52.406;9.690;2022-08-21T08:32:48;30.70;55.20
64634;DHT22;51043;52.406;9.690;2022-08-21T08:35:16;30.90;53.90
64634;DHT22;51043;52.406;9.690;2022-08-21T08:37:44;31.10;52.90
64634;DHT22;51043;52.406;9.690;2022-08-21T08:40:37;31.40;51.40
64634;DHT22;51043;52.406;9.690;2022-08-21T08:43:06;31.40;50.10
64634;DHT22;51043;52.406;9.690;2022-08-21T08:45:39;31.50;50.70
64634;DHT22;51043;52.406;9.690;2022-08-21T08:48:11;31.80;49.70
64634;DHT22;51043;52.406;9.690;2022-08-21T08:50:52;32.20;49.10
64634;DHT22;51043;52.406;9.690;2022-08-21T08:53:25;32.40;47.50
64634;DHT22;51043;52.406;9.690;2022-08-21T08:55:56;32.30;47.90
64634;DHT22;51043;52.406;9.690;2022-08-21T08:58:31;32.10;46.90
64634;DHT22;51043;52.406;9.690;2022-08-21T09:01:00;32.00;47.60
64634;DHT22;51043;52.406;9.690;2022-08-21T09:03:28;31.80;47.20
64634;DHT22;51043;52.406;9.690;2022-08-21T09:06:00;31.70;46.80
64634;DHT22;51043;52.406;9.690;2022-08-21T09:25:23;31.40;46.40
64634;DHT22;51043;52.406;9.690;2022-08-21T09:27:51;31.30;46.30
64634;DHT22;51043;52.406;9.690;2022-08-21T09:30:24;30.60;50.60
64634;DHT22;51043;52.406;9.690;2022-08-21T09:32:52;30.30;50.40
64634;DHT22;51043;52.406;9.690;2022-08-21T09:35:21;30.20;49.10
64634;DHT22;51043;52.406;9.690;2022-08-21T09:45:31;32.60;44.80
64634;DHT22;51043;52.406;9.690;2022-08-21T09:48:28;32.70;44.10
64634;DHT22;51043;52.406;9.690;2022-08-21T09:51:11;32.40;44.30
64634;DHT22;51043;52.406;9.690;2022-08-21T09:53:43;32.20;45.30
64634;DHT22;51043;52.406;9.690;2022-08-21T09:56:38;32.30;45.50
64634;DHT22;51043;52.406;9.690;2022-08-21T09:59:33;33.00;43.50
64634;DHT22;51043;52.406;9.690;2022-08-21T10:02:32;33.00;42.80
64634;DHT22;51043;52.406;9.690;2022-08-21T10:05:08;32.50;47.90
64634;DHT22;51043;52.406;9.690;2022-08-21T10:07:41;32.50;42.90
64634;DHT22;51043;52.406;9.690;2022-08-21T10:10:25;32.60;41.90
64634;DHT22;51043;52.406;9.690;2022-08-21T10:16:08;31.80;43.90
64634;DHT22;51043;52.406;9.690;2022-08-21T10:18:52;31.50;44.40
64634;DHT22;51043;52.406;9.690;2022-08-21T10:24:39;31.20;44.10
64634;DHT22;51043;52.406;9.690;2022-08-21T10:30:00;33.40;41.80
64634;DHT22;51043;52.406;9.690;2022-08-21T10:32:37;34.60;39.10
64634;DHT22;51043;52.406;9.690;2022-08-21T10:35:12;34.50;38.00
64634;DHT22;51043;52.406;9.690;2022-08-21T10:38:21;34.20;38.70
64634;DHT22;51043;52.406;9.690;2022-08-21T10:44:02;34.50;37.30
64634;DHT22;51043;52.406;9.690;2022-08-21T10:49:54;34.40;37.00
64634;DHT22;51043;52.406;9.690;2022-08-21T10:55:26;34.70;37.30
64634;DHT22;51043;52.406;9.690;2022-08-21T10:57:58;33.10;37.50
64634;DHT22;51043;52.406;9.690;2022-08-21T11:03:33;30.60;42.90
64634;DHT22;51043;52.406;9.690;2022-08-21T11:06:27;31.20;41.10
64634;DHT22;51043;52.406;9.690;2022-08-21T11:09:10;30.10;42.20
64634;DHT22;51043;52.406;9.690;2022-08-21T11:14:48;28.90;45.60
64634;DHT22;51043;52.406;9.690;2022-08-21T11:17:28;30.70;44.40
64634;DHT22;51043;52.406;9.690;2022-08-21T11:20:05;32.20;38.40
64634;DHT22;51043;52.406;9.690;2022-08-21T11:22:46;33.30;36.90
64634;DHT22;51043;52.406;9.690;2022-08-21T11:25:27;34.40;35.10
64634;DHT22;51043;52.406;9.690;2022-08-21T11:28:02;35.80;34.20
64634;DHT22;51043;52.406;9.690;2022-08-21T11:30:53;35.50;33.60
64634;DHT22;51043;52.406;9.690;2022-08-21T11:36:10;35.60;32.70
64634;DHT22;51043;52.406;9.690;2022-08-21T11:38:46;35.80;32.90
64634;DHT22;51043;52.406;9.690;2022-08-21T11:47:09;34.30;35.00
64634;DHT22;51043;52.406;9.690;2022-08-21T11:52:59;34.10;34.50
64634;DHT22;51043;52.406;9.690;2022-08-21T11:55:36;34.80;34.20
64634;DHT22;51043;52.406;9.690;2022-08-21T11:58:29;36.00;33.30
64634;DHT22;51043;52.406;9.690;2022-08-21T12:01:00;36.90;31.40
64634;DHT22;51043;52.406;9.690;2022-08-21T12:03:40;37.80;29.40
64634;DHT22;51043;52.406;9.690;2022-08-21T12:06:13;37.10;29.60
64634;DHT22;51043;52.406;9.690;2022-08-21T12:08:43;35.90;31.30
64634;DHT22;51043;52.406;9.690;2022-08-21T12:11:24;36.00;32.00
64634;DHT22;51043;52.406;9.690;2022-08-21T12:16:38;35.60;31.90
64634;DHT22;51043;52.406;9.690;2022-08-21T12:19:14;35.30;32.00
64634;DHT22;51043;52.406;9.690;2022-08-21T12:22:12;35.30;31.80
64634;DHT22;51043;52.406;9.690;2022-08-21T12:24:48;35.30;32.50
64634;DHT22;51043;52.406;9.690;2022-08-21T12:27:30;34.80;32.40
64634;DHT22;51043;52.406;9.690;2022-08-21T12:30:06;33.00;34.80
64634;DHT22;51043;52.406;9.690;2022-08-21T12:32:45;31.70;37.10
64634;DHT22;51043;52.406;9.690;2022-08-21T12:35:18;32.50;37.00
64634;DHT22;51043;52.406;9.690;2022-08-21T12:43:29;34.00;34.00
64634;DHT22;51043;52.406;9.690;2022-08-21T12:45:58;34.20;33.80
64634;DHT22;51043;52.406;9.690;2022-08-21T12:48:47;33.50;34.70
64634;DHT22;51043;52.406;9.690;2022-08-21T12:51:23;33.30;35.30
64634;DHT22;51043;52.406;9.690;2022-08-21T12:53:55;33.90;34.70
64634;DHT22;51043;52.406;9.690;2022-08-21T12:56:29;33.90;34.90
64634;DHT22;51043;52.406;9.690;2022-08-21T12:59:04;32.70;35.50
64634;DHT22;51043;52.406;9.690;2022-08-21T13:01:38;31.80;37.10
64634;DHT22;51043;52.406;9.690;2022-08-21T13:04:16;31.80;37.20
64634;DHT22;51043;52.406;9.690;2022-08-21T13:06:47;32.00;36.50
64634;DHT22;51043;52.406;9.690;2022-08-21T13:09:18;32.70;35.80
64634;DHT22;51043;52.406;9.690;2022-08-21T13:11:47;33.40;33.90
64634;DHT22;51043;52.406;9.690;2022-08-21T13:14:25;33.50;33.80
64634;DHT22;51043;52.406;9.690;2022-08-21T13:16:56;32.70;35.30
64634;DHT22;51043;52.406;9.690;2022-08-21T13:19:24;32.50;35.60
64634;DHT22;51043;52.406;9.690;2022-08-21T13:22:00;32.30;36.50
64634;DHT22;51043;52.406;9.690;2022-08-21T13:24:35;32.80;35.10
64634;DHT22;51043;52.406;9.690;2022-08-21T13:27:22;33.60;35.10
64634;DHT22;51043;52.406;9.690;2022-08-21T13:30:22;33.80;33.50
64634;DHT22;51043;52.406;9.690;2022-08-21T13:32:54;33.10;34.40
64634;DHT22;51043;52.406;9.690;2022-08-21T13:35:26;33.80;34.00
64634;DHT22;51043;52.406;9.690;2022-08-21T13:37:55;34.20;32.80
64634;DHT22;51043;52.406;9.690;2022-08-21T13:40:48;33.30;33.90
64634;DHT22;51043;52.406;9.690;2022-08-21T13:43:19;33.80;34.20
64634;DHT22;51043;52.406;9.690;2022-08-21T13:45:52;34.90;31.90
64634;DHT22;51043;52.406;9.690;2022-08-21T13:48:23;34.80;32.30
64634;DHT22;51043;52.406;9.690;2022-08-21T13:50:52;33.20;34.00
64634;DHT22;51043;52.406;9.690;2022-08-21T13:53:31;32.40;35.40
64634;DHT22;51043;52.406;9.690;2022-08-21T13:56:00;31.10;37.30
64634;DHT22;51043;52.406;9.690;2022-08-21T13:58:48;29.90;39.40
64634;DHT22;51043;52.406;9.690;2022-08-21T14:04:12;31.10;39.30
64634;DHT22;51043;52.406;9.690;2022-08-21T14:06:43;33.00;36.60
64634;DHT22;51043;52.406;9.690;2022-08-21T14:11:51;32.00;37.30
64634;DHT22;51043;52.406;9.690;2022-08-21T14:14:23;30.70;37.90
64634;DHT22;51043;52.406;9.690;2022-08-21T14:16:59;30.30;37.90
64634;DHT22;51043;52.406;9.690;2022-08-21T14:19:39;31.30;37.20
64634;DHT22;51043;52.406;9.690;2022-08-21T14:22:47;32.90;35.40
64634;DHT22;51043;52.406;9.690;2022-08-21T14:30:38;33.30;35.50
64634;DHT22;51043;52.406;9.690;2022-08-21T14:33:12;32.10;36.70
64634;DHT22;51043;52.406;9.690;2022-08-21T14:35:41;30.90;38.40
64634;DHT22;51043;52.406;9.690;2022-08-21T14:38:15;30.50;39.70
64634;DHT22;51043;52.406;9.690;2022-08-21T14:41:00;30.10;39.60
64634;DHT22;51043;52.406;9.690;2022-08-21T14:43:31;29.50;41.00
64634;DHT22;51043;52.406;9.690;2022-08-21T14:46:00;28.70;42.80
64634;DHT22;51043;52.406;9.690;2022-08-21T14:48:28;28.50;43.20
64634;DHT22;51043;52.406;9.690;2022-08-21T14:50:57;28.00;44.20
64634;DHT22;51043;52.406;9.690;2022-08-21T14:53:26;27.90;44.70
64634;DHT22;51043;52.406;9.690;2022-08-21T14:55:56;27.70;45.10
64634;DHT22;51043;52.406;9.690;2022-08-21T14:58:46;27.30;47.10
64634;DHT22;51043;52.406;9.690;2022-08-21T15:01:17;27.00;45.60
64634;DHT22;51043;52.406;9.690;2022-08-21T15:03:45;26.80;46.20
64634;DHT22;51043;52.406;9.690;2022-08-21T15:06:15;26.60;45.80
64634;DHT22;51043;52.406;9.690;2022-08-21T15:08:45;26.50;47.20
64634;DHT22;51043;52.406;9.690;2022-08-21T15:11:17;26.50;47.30
64634;DHT22;51043;52.406;9.690;2022-08-21T15:13:47;26.60;46.90
64634;DHT22;51043;52.406;9.690;2022-08-21T15:16:15;26.80;46.00
64634;DHT22;51043;52.406;9.690;2022-08-21T15:18:42;26.90;46.30
64634;DHT22;51043;52.406;9.690;2022-08-21T15:21:11;26.80;45.60
64634;DHT22;51043;52.406;9.690;2022-08-21T15:23:39;26.80;45.60
64634;DHT22;51043;52.406;9.690;2022-08-21T15:26:07;26.70;45.70
64634;DHT22;51043;52.406;9.690;2022-08-21T15:28:35;26.80;46.10
64634;DHT22;51043;52.406;9.690;2022-08-21T15:31:04;26.80;46.10
64634;DHT22;51043;52.406;9.690;2022-08-21T15:33:31;26.80;46.70
64634;DHT22;51043;52.406;9.690;2022-08-21T15:36:04;26.80;46.60
64634;DHT22;51043;52.406;9.690;2022-08-21T15:38:31;26.80;46.80
64634;DHT22;51043;52.406;9.690;2022-08-21T15:41:02;26.60;46.90
64634;DHT22;51043;52.406;9.690;2022-08-21T15:43:53;26.60;46.70
64634;DHT22;51043;52.406;9.690;2022-08-21T15:46:20;26.40;46.80
64634;DHT22;51043;52.406;9.690;2022-08-21T15:48:48;26.30;47.60
64634;DHT22;51043;52.406;9.690;2022-08-21T15:51:16;26.20;48.00
64634;DHT22;51043;52.406;9.690;2022-08-21T15:53:50;26.10;49.20
64634;DHT22;51043;52.406;9.690;2022-08-21T15:56:33;26.00;48.90
64634;DHT22;51043;52.406;9.690;2022-08-21T15:59:06;26.00;48.40
64634;DHT22;51043;52.406;9.690;2022-08-21T16:01:35;26.00;48.90
64634;DHT22;51043;52.406;9.690;2022-08-21T16:04:04;26.00;48.80
64634;DHT22;51043;52.406;9.690;2022-08-21T16:06:31;25.90;48.90
64634;DHT22;51043;52.406;9.690;2022-08-21T16:08:59;25.80;49.30
64634;DHT22;51043;52.406;9.690;2022-08-21T16:11:27;25.80;49.40
64634;DHT22;51043;52.406;9.690;2022-08-21T16:13:54;25.80;50.50
64634;DHT22;51043;52.406;9.690;2022-08-21T16:16:23;25.80;50.10
64634;DHT22;51043;52.406;9.690;2022-08-21T16:18:51;25.70;49.70
64634;DHT22;51043;52.406;9.690;2022-08-21T16:21:19;25.70;50.00
64634;DHT22;51043;52.406;9.690;2022-08-21T16:23:46;25.70;49.60
64634;DHT22;51043;52.406;9.690;2022-08-21T16:26:16;25.70;50.40
64634;DHT22;51043;52.406;9.690;2022-08-21T16:28:54;25.70;51.20
64634;DHT22;51043;52.406;9.690;2022-08-21T16:31:24;25.80;50.10
64634;DHT22;51043;52.406;9.690;2022-08-21T16:33:53;25.90;50.00
64634;DHT22;51043;52.406;9.690;2022-08-21T16:36:24;26.00;49.30
64634;DHT22;51043;52.406;9.690;2022-08-21T16:38:55;26.10;49.70
64634;DHT22;51043;52.406;9.690;2022-08-21T16:41:26;26.10;49.70
64634;DHT22;51043;52.406;9.690;2022-08-21T16:43:54;26.10;49.60
64634;DHT22;51043;52.406;9.690;2022-08-21T16:46:22;25.90;50.10
64634;DHT22;51043;52.406;9.690;2022-08-21T16:48:50;25.80;50.20
64634;DHT22;51043;52.406;9.690;2022-08-21T16:51:20;25.90;49.20
64634;DHT22;51043;52.406;9.690;2022-08-21T16:53:47;25.80;49.90
64634;DHT22;51043;52.406;9.690;2022-08-21T16:56:15;25.70;49.50
64634;DHT22;51043;52.406;9.690;2022-08-21T16:58:49;25.70;51.10
64634;DHT22;51043;52.406;9.690;2022-08-21T17:01:23;25.60;51.30
64634;DHT22;51043;52.406;9.690;2022-08-21T17:03:50;25.40;51.40
64634;DHT22;51043;52.406;9.690;2022-08-21T17:06:23;25.50;51.20
64634;DHT22;51043;52.406;9.690;2022-08-21T17:08:50;25.80;51.10
64634;DHT22;51043;52.406;9.690;2022-08-21T17:13:54;25.40;52.30
64634;DHT22;51043;52.406;9.690;2022-08-21T17:16:26;25.20;52.60
64634;DHT22;51043;52.406;9.690;2022-08-21T17:18:54;25.30;52.90
64634;DHT22;51043;52.406;9.690;2022-08-21T17:21:28;25.30;52.60
64634;DHT22;51043;52.406;9.690;2022-08-21T17:23:55;25.10;52.20